createdAt,value
2019-02-25T06:19:13.364Z,50.46
2019-02-25T06:20:13.339Z,52.12
2019-02-25T06:21:13.370Z,52.12
2019-02-25T06:22:13.345Z,51.52
2019-02-25T06:23:13.328Z,51.52
2019-02-25T06:24:13.291Z,52.14
2019-02-25T06:25:13.309Z,51.10
2019-02-25T06:26:15.814Z,51.08
2019-02-25T06:27:13.279Z,51.00
2019-02-25T06:28:13.257Z,50.35
2019-02-25T06:29:13.244Z,51.08
2019-02-25T06:30:13.300Z,50.98
2019-02-25T06:31:13.221Z,52.22
2019-02-25T06:32:13.250Z,52.66
2019-02-25T06:33:13.196Z,52.56
2019-02-25T06:34:13.202Z,52.53
2019-02-25T06:35:13.212Z,52.56
2019-02-25T06:36:13.204Z,52.56
2019-02-25T06:37:13.184Z,52.25
2019-02-25T06:38:13.149Z,52.66
2019-02-25T06:39:13.145Z,51.52
2019-02-25T06:40:15.336Z,52.25
2019-02-25T06:41:13.112Z,51.83
2019-02-25T06:42:13.121Z,51.62
2019-02-25T06:43:20.351Z,51.42
2019-02-25T06:44:13.083Z,51.00
2019-02-25T06:45:13.080Z,51.21
2019-02-25T06:46:13.063Z,51.31
2019-02-25T06:47:13.081Z,50.90
2019-02-25T06:48:13.037Z,51.21
2019-02-25T06:49:13.029Z,51.29
2019-02-25T06:50:13.024Z,52.01
2019-02-25T06:51:13.009Z,50.98
2019-02-25T06:52:13.007Z,51.08
2019-02-25T06:53:13.004Z,51.29
2019-02-25T06:54:12.978Z,50.98
2019-02-25T06:55:12.965Z,51.29
2019-02-25T06:56:12.970Z,51.39
2019-02-25T06:57:12.944Z,50.77
2019-02-25T06:58:12.961Z,51.29
2019-02-25T06:59:12.921Z,51.60
2019-02-25T07:00:12.924Z,52.43
2019-02-25T07:01:12.902Z,51.89
2019-02-25T07:02:12.892Z,52.72
2019-02-25T07:03:12.909Z,52.20
2019-02-25T07:04:12.877Z,50.85
2019-02-25T07:05:12.860Z,51.99
2019-02-25T07:06:12.848Z,52.20
2019-02-25T07:07:12.838Z,50.02
2019-02-25T07:08:12.854Z,49.51
2019-02-25T07:09:12.822Z,50.43
2019-02-25T07:10:12.821Z,49.51
2019-02-25T07:11:12.803Z,49.27
2019-02-25T07:12:12.791Z,49.07
2019-02-25T07:13:12.797Z,49.07
2019-02-25T07:14:12.830Z,48.44
2019-02-25T07:15:12.760Z,48.55
2019-02-25T07:16:12.750Z,50.10
2019-02-25T07:17:12.742Z,49.48
2019-02-25T07:18:12.756Z,49.17
2019-02-25T07:19:12.711Z,50.21
2019-02-25T07:20:12.706Z,49.58
2019-02-25T07:21:12.706Z,49.07
2019-02-25T07:22:12.691Z,49.15
2019-02-25T07:23:12.704Z,49.46
2019-02-25T07:24:12.658Z,50.18
2019-02-25T07:25:12.655Z,49.56
2019-02-25T07:26:12.646Z,48.53
2019-02-25T07:27:12.632Z,48.53
2019-02-25T07:28:12.656Z,48.01
2019-02-25T07:29:12.605Z,48.40
2019-02-25T07:30:12.605Z,47.88
2019-02-25T07:31:12.597Z,47.36
2019-02-25T07:32:12.573Z,47.16
2019-02-25T07:33:12.587Z,47.78
2019-02-25T07:34:12.564Z,48.40
2019-02-25T07:35:12.546Z,47.27
2019-02-25T07:36:12.533Z,47.47
2019-02-25T07:37:12.523Z,47.14
2019-02-25T07:38:12.533Z,47.34
2019-02-25T07:39:12.503Z,47.34
2019-02-25T07:40:12.506Z,47.55
2019-02-25T07:41:12.482Z,47.45
2019-02-25T07:42:12.473Z,46.62
2019-02-25T07:43:12.493Z,46.91
2019-02-25T07:44:12.452Z,46.60
2019-02-25T07:45:12.454Z,46.81
2019-02-25T07:46:12.434Z,47.22
2019-02-25T07:47:12.419Z,47.32
2019-02-25T07:48:12.427Z,46.99
2019-02-25T07:49:12.399Z,46.35
2019-02-25T07:50:12.403Z,46.17
2019-02-25T07:51:12.390Z,46.56
2019-02-25T07:52:12.375Z,46.35
2019-02-25T07:53:12.398Z,45.42
2019-02-25T07:54:12.349Z,45.09
2019-02-25T07:55:12.345Z,46.23
2019-02-25T07:56:12.338Z,45.61
2019-02-25T07:57:12.320Z,45.09
2019-02-25T07:58:12.331Z,45.07
2019-02-25T07:59:12.296Z,44.47
2019-02-25T08:00:12.289Z,44.56
2019-02-25T08:01:12.277Z,44.66
2019-02-25T08:02:12.287Z,44.84
2019-02-25T08:03:12.284Z,44.74
2019-02-25T08:04:12.253Z,44.74
2019-02-25T08:05:12.236Z,43.50
2019-02-25T08:06:12.225Z,43.79
2019-02-25T08:07:12.214Z,43.48
2019-02-25T08:08:12.226Z,42.86
2019-02-25T08:09:12.209Z,43.15
2019-02-25T08:10:12.204Z,43.36
2019-02-25T08:11:12.181Z,43.05
2019-02-25T08:12:12.162Z,42.31
2019-02-25T08:13:12.173Z,42.41
2019-02-25T08:14:12.145Z,41.57
2019-02-25T08:15:12.143Z,41.98
2019-02-25T08:16:12.128Z,41.55
2019-02-25T08:17:12.124Z,41.75
2019-02-25T08:18:12.130Z,42.07
2019-02-25T08:19:12.094Z,42.05
2019-02-25T08:20:12.081Z,41.93
2019-02-25T08:21:12.074Z,41.80
2019-02-25T08:22:12.067Z,40.16
2019-02-25T08:23:12.081Z,39.32
2019-02-25T08:24:12.042Z,39.73
2019-02-25T08:25:12.027Z,38.77
2019-02-25T08:26:12.033Z,37.84
2019-02-25T08:27:12.005Z,37.83
2019-02-25T08:28:12.003Z,37.81
2019-02-25T08:29:12.345Z,37.38
2019-02-25T08:30:12.028Z,37.37
2019-02-25T08:31:11.972Z,36.85
2019-02-25T08:32:11.984Z,36.02
2019-02-25T08:33:11.942Z,36.51
2019-02-25T08:34:18.328Z,35.99
2019-02-25T08:35:12.918Z,36.49
2019-02-25T08:36:11.909Z,35.46
2019-02-25T08:37:11.898Z,34.33
2019-02-25T08:38:11.893Z,34.72
2019-02-25T08:39:11.897Z,35.24
2019-02-25T08:40:11.874Z,36.14
2019-02-25T08:41:11.853Z,34.80
2019-02-25T08:42:11.842Z,33.98
2019-02-25T08:43:11.840Z,32.94
2019-02-25T08:44:11.844Z,33.84
2019-02-25T08:45:11.815Z,33.33
2019-02-25T08:46:11.822Z,33.62
2019-02-25T08:47:11.788Z,32.30
2019-02-25T08:48:11.778Z,32.11
2019-02-25T08:49:11.785Z,32.91
2019-02-25T08:50:11.759Z,32.90
2019-02-25T08:51:11.752Z,32.27
2019-02-25T08:52:11.751Z,31.96
2019-02-25T08:53:11.718Z,31.13
2019-02-25T08:54:11.730Z,31.63
2019-02-25T08:55:11.701Z,32.53
2019-02-25T08:56:11.686Z,30.60
2019-02-25T08:57:11.680Z,30.90
2019-02-25T08:58:11.668Z,29.87
2019-02-25T08:59:11.705Z,29.97
2019-02-25T09:00:11.643Z,30.55
2019-02-25T09:01:11.634Z,30.54
2019-02-25T09:02:11.619Z,29.92
2019-02-25T09:03:11.613Z,29.21
2019-02-25T09:04:11.621Z,28.58
2019-02-25T09:05:11.591Z,28.28
2019-02-25T09:06:11.585Z,28.99
2019-02-25T09:07:11.567Z,28.77
2019-02-25T09:08:11.558Z,27.34
2019-02-25T09:09:11.573Z,27.55
2019-02-25T09:10:13.436Z,28.44
2019-02-25T09:11:14.147Z,27.23
2019-02-25T09:12:11.513Z,26.72
2019-02-25T09:13:11.509Z,26.43
2019-02-25T09:14:11.516Z,26.03
2019-02-25T09:15:11.487Z,27.33
2019-02-25T09:16:11.478Z,26.70
2019-02-25T09:17:11.475Z,26.70
2019-02-25T09:18:11.448Z,26.19
2019-02-25T09:19:11.469Z,26.19
2019-02-25T09:20:11.447Z,26.09
2019-02-25T09:21:11.426Z,26.67
2019-02-25T09:22:11.410Z,25.76
2019-02-25T09:23:11.395Z,25.46
2019-02-25T09:24:11.414Z,25.78
2019-02-25T09:25:11.373Z,24.66
2019-02-25T09:26:11.927Z,26.17
2019-02-25T09:27:11.355Z,25.24
2019-02-25T09:28:11.344Z,24.83
2019-02-25T09:29:11.356Z,23.58
2019-02-25T09:30:11.325Z,23.77
2019-02-25T09:31:11.311Z,23.07
2019-02-25T09:32:11.305Z,22.59
2019-02-25T09:33:11.290Z,23.32
2019-02-25T09:34:11.843Z,22.92
2019-02-25T09:35:11.267Z,23.73
2019-02-25T09:36:11.256Z,23.93
2019-02-25T09:37:11.243Z,23.42
2019-02-25T09:38:11.242Z,23.18
2019-02-25T09:39:11.271Z,22.79
2019-02-25T09:40:11.211Z,22.59
2019-02-25T09:41:11.200Z,23.10
2019-02-25T09:42:11.189Z,23.70
2019-02-25T09:43:11.181Z,23.17
2019-02-25T09:44:11.202Z,23.17
2019-02-25T09:45:11.166Z,22.85
2019-02-25T09:46:11.148Z,22.12
2019-02-25T09:47:11.139Z,21.91
2019-02-25T09:48:11.128Z,22.20
2019-02-25T09:49:11.136Z,21.40
2019-02-25T09:50:11.105Z,22.68
2019-02-25T09:51:11.441Z,21.37
2019-02-25T09:52:11.084Z,21.86
2019-02-25T09:53:11.073Z,20.75
2019-02-25T09:54:11.088Z,21.42
2019-02-25T09:55:11.050Z,20.92
2019-02-25T09:56:11.042Z,20.89
2019-02-25T09:57:11.042Z,19.29
2019-02-25T09:58:11.019Z,19.47
2019-02-25T09:59:11.031Z,19.57
2019-02-25T10:00:10.999Z,19.68
2019-02-25T10:01:10.988Z,19.48
2019-02-25T10:02:10.992Z,19.38
2019-02-25T10:03:10.981Z,19.18
2019-02-25T10:04:10.978Z,18.88
2019-02-25T10:05:10.946Z,19.47
2019-02-25T10:06:12.921Z,18.85
2019-02-25T10:07:10.925Z,17.77
2019-02-25T10:08:10.921Z,18.17
2019-02-25T10:09:10.925Z,18.58
2019-02-25T10:10:10.912Z,18.48
2019-02-25T10:11:10.883Z,18.37
2019-02-25T10:12:10.875Z,18.08
2019-02-25T10:13:10.861Z,18.49
2019-02-25T10:14:10.858Z,18.27
2019-02-25T10:15:10.873Z,19.64
2019-02-25T10:16:10.832Z,19.91
2019-02-25T10:17:10.823Z,17.42
2019-02-25T10:18:10.835Z,17.83
2019-02-25T10:19:10.800Z,18.52
2019-02-25T10:20:10.808Z,17.85
2019-02-25T10:21:10.796Z,18.04
2019-02-25T10:22:10.768Z,18.82
2019-02-25T10:23:10.759Z,18.21
2019-02-25T10:24:10.749Z,18.30
2019-02-25T10:25:10.756Z,18.29
2019-02-25T10:26:10.728Z,17.60
2019-02-25T10:27:10.731Z,17.40
2019-02-25T10:28:10.706Z,17.20
2019-02-25T10:29:10.697Z,17.79
2019-02-25T10:30:10.704Z,17.88
2019-02-25T10:31:11.483Z,16.91
2019-02-25T10:32:10.664Z,17.80
2019-02-25T10:33:10.670Z,17.81
2019-02-25T10:34:10.651Z,18.12
2019-02-25T10:35:10.663Z,18.02
2019-02-25T10:36:10.623Z,17.83
2019-02-25T10:37:11.068Z,17.62
2019-02-25T10:38:10.603Z,18.10
2019-02-25T10:39:12.620Z,17.70
2019-02-25T10:40:10.605Z,17.91
2019-02-25T10:41:10.573Z,18.11
2019-02-25T10:42:10.562Z,18.82
2019-02-25T10:43:10.551Z,18.43
2019-02-25T10:44:10.555Z,18.13
2019-02-25T10:45:11.055Z,18.52
2019-02-25T10:46:11.717Z,19.62
2019-02-25T10:47:11.032Z,18.41
2019-02-25T10:48:10.501Z,18.21
2019-02-25T10:49:11.638Z,19.20
2019-02-25T10:50:10.505Z,18.37
2019-02-25T10:51:11.554Z,18.18
2019-02-25T10:52:11.222Z,18.67
2019-02-25T10:53:10.996Z,18.77
2019-02-25T10:54:10.439Z,19.13
2019-02-25T10:55:10.450Z,19.01
2019-02-25T10:56:10.418Z,17.11
2019-02-25T10:57:10.423Z,17.02
2019-02-25T10:58:10.401Z,17.72
2019-02-25T10:59:10.390Z,17.54
2019-02-25T11:00:11.735Z,17.93
2019-02-25T11:01:13.479Z,18.02
2019-02-25T11:02:13.183Z,18.31
2019-02-25T11:03:12.371Z,16.93
2019-02-25T11:04:10.341Z,17.82
2019-02-25T11:05:10.348Z,18.33
2019-02-25T11:06:10.319Z,19.22
2019-02-25T11:07:10.309Z,18.22
2019-02-25T11:08:11.642Z,18.41
2019-02-25T11:09:11.064Z,18.29
2019-02-25T11:10:11.933Z,17.08
2019-02-25T11:11:10.282Z,17.86
2019-02-25T11:12:10.260Z,16.88
2019-02-25T11:13:10.251Z,16.98
2019-02-25T11:14:10.239Z,17.10
2019-02-25T11:15:11.645Z,17.58
2019-02-25T11:16:11.814Z,17.68
2019-02-25T11:17:10.218Z,17.47
2019-02-25T11:18:10.210Z,17.85
2019-02-25T11:19:10.189Z,17.45
2019-02-25T11:20:10.214Z,16.95
2019-02-25T11:21:10.657Z,16.46
2019-02-25T11:22:12.061Z,17.24
2019-02-25T11:23:12.311Z,17.52
2019-02-25T11:24:10.139Z,16.53
2019-02-25T11:25:10.128Z,15.95
2019-02-25T11:26:10.142Z,16.43
2019-02-25T11:27:10.128Z,16.52
2019-02-25T11:28:22.621Z,16.32
2019-02-25T11:29:11.822Z,15.82
2019-02-25T11:30:11.963Z,16.69
2019-02-25T11:31:10.110Z,16.21
2019-02-25T11:32:10.059Z,16.33
2019-02-25T11:33:10.049Z,17.42
2019-02-25T11:34:10.047Z,17.22
2019-02-25T11:35:10.767Z,16.62
2019-02-25T11:36:10.629Z,16.82
2019-02-25T11:37:10.010Z,16.12
2019-02-25T11:38:10.006Z,16.30
2019-02-25T11:39:09.993Z,16.50
2019-02-25T11:40:09.987Z,16.40
2019-02-25T11:41:11.300Z,16.30
2019-02-25T11:42:10.912Z,16.02
2019-02-25T11:43:10.577Z,17.23
2019-02-25T11:44:09.941Z,16.03
2019-02-25T11:45:09.932Z,16.33
2019-02-25T11:46:09.956Z,15.73
2019-02-25T11:47:09.912Z,15.72
2019-02-25T11:48:09.907Z,16.11
2019-02-25T11:49:09.895Z,16.32
2019-02-25T11:50:09.882Z,16.55
2019-02-25T11:51:09.891Z,17.82
2019-02-25T11:52:09.877Z,19.65
2019-02-25T11:53:09.857Z,20.38
2019-02-25T11:54:10.167Z,20.68
2019-02-25T11:55:09.831Z,20.67
2019-02-25T11:56:09.840Z,19.35
2019-02-25T11:57:09.812Z,19.32
2019-02-25T11:58:09.814Z,18.99
2019-02-25T11:59:09.792Z,17.97
2019-02-25T12:00:09.786Z,17.16
2019-02-25T12:01:09.797Z,17.24
2019-02-25T12:02:09.762Z,16.53
2019-02-25T12:03:09.751Z,16.42
2019-02-25T12:04:09.751Z,16.86
2019-02-25T12:05:09.731Z,17.58
2019-02-25T12:06:09.749Z,17.17
2019-02-25T12:07:09.710Z,17.77
2019-02-25T12:08:09.701Z,17.08
2019-02-25T12:09:09.690Z,17.16
2019-02-25T12:10:09.776Z,17.94
2019-02-25T12:11:09.700Z,17.35
2019-02-25T12:12:09.662Z,16.74
2019-02-25T12:13:09.654Z,16.64
2019-02-25T12:14:09.650Z,17.24
2019-02-25T12:15:09.631Z,17.16
2019-02-25T12:16:09.658Z,17.16
2019-02-25T12:17:09.612Z,17.47
2019-02-25T12:18:09.600Z,16.97
2019-02-25T12:19:17.751Z,17.66
2019-02-25T12:20:10.579Z,17.47
2019-02-25T12:21:09.601Z,18.39
2019-02-25T12:22:09.568Z,18.39
2019-02-25T12:23:09.551Z,18.10
2019-02-25T12:24:09.543Z,18.88
2019-02-25T12:25:09.534Z,18.91
2019-02-25T12:26:09.542Z,19.30
2019-02-25T12:27:09.511Z,19.29
2019-02-25T12:28:09.511Z,18.88
2019-02-25T12:29:11.026Z,19.18
2019-02-25T12:30:09.483Z,18.78
2019-02-25T12:31:09.499Z,17.80
2019-02-25T12:32:09.470Z,19.49
2019-02-25T12:33:09.453Z,19.77
2019-02-25T12:34:09.451Z,18.27
2019-02-25T12:35:09.432Z,19.27
2019-02-25T12:36:09.441Z,19.09
2019-02-25T12:37:09.415Z,19.27
2019-02-25T12:38:09.404Z,19.17
2019-02-25T12:39:09.399Z,19.06
2019-02-25T12:40:09.390Z,19.55
2019-02-25T12:41:09.408Z,18.86
2019-02-25T12:42:09.360Z,18.96
2019-02-25T12:43:09.352Z,19.07
2019-02-25T12:44:09.355Z,19.17
2019-02-25T12:45:09.334Z,19.36
2019-02-25T12:46:09.335Z,19.28
2019-02-25T12:47:09.330Z,20.01
2019-02-25T12:48:09.301Z,21.15
2019-02-25T12:49:09.291Z,22.20
2019-02-25T12:50:09.284Z,22.14
2019-02-25T12:51:09.271Z,23.38
2019-02-25T12:52:09.300Z,24.01
2019-02-25T12:53:09.252Z,24.13
2019-02-25T12:54:09.243Z,24.85
2019-02-25T12:55:09.237Z,25.27
2019-02-25T12:56:09.221Z,25.49
2019-02-25T12:57:09.239Z,26.01
2019-02-25T12:58:09.219Z,26.22
2019-02-25T12:59:09.188Z,26.43
2019-02-25T13:00:09.179Z,26.22
2019-02-25T13:01:09.172Z,26.42
2019-02-25T13:02:09.188Z,27.22
2019-02-25T13:03:09.159Z,27.22
2019-02-25T13:04:09.151Z,27.22
2019-02-25T13:05:09.127Z,27.33
2019-02-25T13:06:09.116Z,27.44
2019-02-25T13:07:09.127Z,27.75
2019-02-25T13:08:09.094Z,27.16
2019-02-25T13:09:09.087Z,27.88
2019-02-25T13:10:09.092Z,28.69
2019-02-25T13:11:09.063Z,28.49
2019-02-25T13:12:09.075Z,27.89
2019-02-25T13:13:09.050Z,27.69
2019-02-25T13:14:09.032Z,28.91
2019-02-25T13:15:13.254Z,29.02
2019-02-25T13:16:09.023Z,29.02
2019-02-25T13:17:09.021Z,29.11
2019-02-25T13:18:08.988Z,29.22
2019-02-25T13:19:08.982Z,29.22
2019-02-25T13:20:08.971Z,29.62
2019-02-25T13:21:08.957Z,29.11
2019-02-25T13:22:08.982Z,28.71
2019-02-25T13:23:08.939Z,28.71
2019-02-25T13:24:09.917Z,28.92
2019-02-25T13:25:10.572Z,28.83
2019-02-25T13:26:08.906Z,29.03
2019-02-25T13:27:11.052Z,28.83
2019-02-25T13:28:08.889Z,28.83
2019-02-25T13:29:08.881Z,29.33
2019-02-25T13:30:08.861Z,29.23
2019-02-25T13:31:10.178Z,28.72
2019-02-25T13:32:08.867Z,29.44
2019-02-25T13:33:08.829Z,29.44
2019-02-25T13:34:08.824Z,30.05
2019-02-25T13:35:08.817Z,30.05
2019-02-25T13:36:08.797Z,29.95
2019-02-25T13:37:08.805Z,29.35
2019-02-25T13:38:08.780Z,29.76
2019-02-25T13:39:08.773Z,29.75
2019-02-25T13:40:08.760Z,29.76
2019-02-25T13:41:08.751Z,29.16
2019-02-25T13:42:08.907Z,29.14
2019-02-25T13:43:08.720Z,29.26
2019-02-25T13:44:08.710Z,29.64
2019-02-25T13:45:08.699Z,29.96
2019-02-25T13:46:08.691Z,29.66
2019-02-25T13:47:08.735Z,29.66
2019-02-25T13:48:08.672Z,29.86
2019-02-25T13:49:08.660Z,30.07
2019-02-25T13:50:08.648Z,30.18
2019-02-25T13:51:08.637Z,29.98
2019-02-25T13:52:08.642Z,29.68
2019-02-25T13:53:08.612Z,29.98
2019-02-25T13:54:08.601Z,29.96
2019-02-25T13:55:08.594Z,29.78
2019-02-25T13:56:08.597Z,29.56
2019-02-25T13:57:08.629Z,29.46
2019-02-25T13:58:08.611Z,29.36
2019-02-25T13:59:08.583Z,29.86
2019-02-25T14:00:08.568Z,29.76
2019-02-25T14:01:08.584Z,28.96
2019-02-25T14:02:08.626Z,29.16
2019-02-25T14:03:08.534Z,29.16
2019-02-25T14:04:08.499Z,29.26
2019-02-25T14:05:08.511Z,28.85
2019-02-25T14:06:08.477Z,29.26
2019-02-25T14:07:08.489Z,29.06
2019-02-25T14:08:08.468Z,29.16
2019-02-25T14:09:08.447Z,28.55
2019-02-25T14:10:08.455Z,28.77
2019-02-25T14:11:08.424Z,28.55
2019-02-25T14:12:08.457Z,29.06
2019-02-25T14:13:08.417Z,28.85
2019-02-25T14:14:08.410Z,28.75
2019-02-25T14:15:08.379Z,29.16
2019-02-25T14:16:08.376Z,28.75
2019-02-25T14:17:08.394Z,28.96
2019-02-25T14:18:08.356Z,29.06
2019-02-25T14:19:08.338Z,28.55
2019-02-25T14:20:08.355Z,28.75
2019-02-25T14:21:08.328Z,28.75
2019-02-25T14:22:08.370Z,28.75
2019-02-25T14:23:08.312Z,28.25
2019-02-25T14:24:08.308Z,28.85
2019-02-25T14:25:08.302Z,27.84
2019-02-25T14:26:08.268Z,27.84
2019-02-25T14:27:08.252Z,27.55
2019-02-25T14:28:08.341Z,27.64
2019-02-25T14:29:08.234Z,28.05
2019-02-25T14:30:09.404Z,27.34
2019-02-25T14:31:08.254Z,27.95
2019-02-25T14:32:10.900Z,28.15
2019-02-25T14:33:08.218Z,28.05
2019-02-25T14:34:08.189Z,28.67
2019-02-25T14:35:08.190Z,29.06
2019-02-25T14:36:10.665Z,28.65
2019-02-25T14:37:08.147Z,28.75
2019-02-25T14:38:10.366Z,29.06
2019-02-25T14:39:08.142Z,28.55
2019-02-25T14:40:08.660Z,29.06
2019-02-25T14:41:09.045Z,28.85
2019-02-25T14:42:09.381Z,29.06
2019-02-25T14:43:10.527Z,29.26
2019-02-25T14:44:08.110Z,28.85
2019-02-25T14:45:09.424Z,28.96
2019-02-25T14:46:11.810Z,29.26
2019-02-25T14:47:19.798Z,29.46
2019-02-25T14:48:10.733Z,29.66
2019-02-25T14:49:08.233Z,29.76
2019-02-25T14:50:08.023Z,29.46
2019-02-25T14:51:08.826Z,29.46
2019-02-25T14:52:07.994Z,29.56
2019-02-25T14:53:09.166Z,29.86
2019-02-25T14:54:07.965Z,29.26
2019-02-25T14:55:09.416Z,30.36
2019-02-25T14:56:07.955Z,29.86
2019-02-25T14:57:07.939Z,29.66
2019-02-25T14:58:09.825Z,29.96
2019-02-25T14:59:12.435Z,29.96
2019-02-25T15:00:08.903Z,29.66
2019-02-25T15:01:07.894Z,29.66
2019-02-25T15:02:08.688Z,29.68
2019-02-25T15:03:07.893Z,29.66
2019-02-25T15:04:07.870Z,29.98
2019-02-25T15:05:07.853Z,30.79
2019-02-25T15:06:07.838Z,30.57
2019-02-25T15:07:08.635Z,30.38
2019-02-25T15:08:07.839Z,30.88
2019-02-25T15:09:10.387Z,30.48
2019-02-25T15:10:08.472Z,30.88
2019-02-25T15:11:09.234Z,30.38
2019-02-25T15:12:11.055Z,30.58
2019-02-25T15:13:08.847Z,30.48
2019-02-25T15:14:08.569Z,30.99
2019-02-25T15:15:08.847Z,30.38
2019-02-25T15:16:07.735Z,30.68
2019-02-25T15:17:08.413Z,30.79
2019-02-25T15:18:07.746Z,30.38
2019-02-25T15:19:07.702Z,30.88
2019-02-25T15:20:07.697Z,30.79
2019-02-25T15:21:09.145Z,30.38
2019-02-25T15:22:07.674Z,30.38
2019-02-25T15:23:07.687Z,30.88
2019-02-25T15:24:08.494Z,31.19
2019-02-25T15:25:07.639Z,31.09
2019-02-25T15:26:07.647Z,30.48
2019-02-25T15:27:09.320Z,31.49
2019-02-25T15:28:11.094Z,31.39
2019-02-25T15:29:09.267Z,31.39
2019-02-25T15:30:07.604Z,30.99
2019-02-25T15:31:09.469Z,30.60
2019-02-25T15:32:07.582Z,31.09
2019-02-25T15:33:07.605Z,30.68
2019-02-25T15:34:08.938Z,30.28
2019-02-25T15:35:07.531Z,30.28
2019-02-25T15:36:07.520Z,31.19
2019-02-25T15:37:09.359Z,30.48
2019-02-25T15:38:07.519Z,32.21
2019-02-25T15:39:07.516Z,32.11
2019-02-25T15:40:09.840Z,31.10
2019-02-25T15:41:09.160Z,31.30
2019-02-25T15:42:07.457Z,31.41
2019-02-25T15:43:10.465Z,31.51
2019-02-25T15:44:08.980Z,30.30
2019-02-25T15:45:07.425Z,30.40
2019-02-25T15:46:07.419Z,32.42
2019-02-25T15:47:08.618Z,32.11
2019-02-25T15:48:07.409Z,32.01
2019-02-25T15:49:07.406Z,32.13
2019-02-25T15:50:08.070Z,32.01
2019-02-25T15:51:07.361Z,31.41
2019-02-25T15:52:07.353Z,31.22
2019-02-25T15:53:09.435Z,30.90
2019-02-25T15:54:07.357Z,31.32
2019-02-25T15:55:07.328Z,31.51
2019-02-25T15:56:08.092Z,31.10
2019-02-25T15:57:07.296Z,32.01
2019-02-25T15:58:08.740Z,31.71
2019-02-25T15:59:07.295Z,31.10
2019-02-25T16:00:07.269Z,31.81
2019-02-25T16:01:07.260Z,31.02
2019-02-25T16:02:07.726Z,31.73
2019-02-25T16:03:09.135Z,31.82
2019-02-25T16:04:09.160Z,31.22
2019-02-25T16:05:07.972Z,31.22
2019-02-25T16:06:08.374Z,31.42
2019-02-25T16:07:08.318Z,31.73
2019-02-25T16:08:07.200Z,31.73
2019-02-25T16:09:07.202Z,31.42
2019-02-25T16:10:09.530Z,30.31
2019-02-25T16:11:07.173Z,31.52
2019-02-25T16:12:07.942Z,31.62
2019-02-25T16:13:11.150Z,31.52
2019-02-25T16:14:08.155Z,31.42
2019-02-25T16:15:08.685Z,31.32
2019-02-25T16:16:07.094Z,32.13
2019-02-25T16:17:07.095Z,32.23
2019-02-25T16:18:07.074Z,32.13
2019-02-25T16:19:07.100Z,32.64
2019-02-25T16:20:07.056Z,32.43
2019-02-25T16:21:07.041Z,31.84
2019-02-25T16:22:09.182Z,31.74
2019-02-25T16:23:08.114Z,32.24
2019-02-25T16:24:11.589Z,32.04
2019-02-25T16:25:09.468Z,32.04
2019-02-25T16:26:06.989Z,33.26
2019-02-25T16:27:06.977Z,34.06
2019-02-25T16:28:08.155Z,33.26
2019-02-25T16:29:08.930Z,35.30
2019-02-25T16:30:06.947Z,34.48
2019-02-25T16:31:08.353Z,33.98
2019-02-25T16:32:06.942Z,34.48
2019-02-25T16:33:07.840Z,34.48
2019-02-25T16:34:06.951Z,35.19
2019-02-25T16:35:07.271Z,33.47
2019-02-25T16:36:07.873Z,33.89
2019-02-25T16:37:06.877Z,34.30
2019-02-25T16:38:07.331Z,34.00
2019-02-25T16:39:07.616Z,33.89
2019-02-25T16:40:08.849Z,34.30
2019-02-25T16:41:08.523Z,36.74
2019-02-25T16:42:06.820Z,35.53
2019-02-25T16:43:07.763Z,35.31
2019-02-25T16:44:08.683Z,36.34
2019-02-25T16:45:09.390Z,37.65
2019-02-25T16:46:08.820Z,36.24
2019-02-25T16:47:07.905Z,37.25
2019-02-25T16:48:06.759Z,37.86
2019-02-25T16:49:06.801Z,36.66
2019-02-25T16:50:06.766Z,38.18
2019-02-25T16:51:07.936Z,37.37
2019-02-25T16:52:06.711Z,37.16
2019-02-25T16:53:08.556Z,36.98
2019-02-25T16:54:09.218Z,37.29
2019-02-25T16:55:06.699Z,40.43
2019-02-25T16:56:07.901Z,38.40
2019-02-25T16:57:07.314Z,39.51
2019-02-25T16:58:10.715Z,37.99
2019-02-25T16:59:10.888Z,38.52
2019-02-25T17:00:07.774Z,37.71
2019-02-25T17:01:07.967Z,37.81
2019-02-25T17:02:07.107Z,39.64
2019-02-25T17:03:08.083Z,38.21
2019-02-25T17:04:06.592Z,39.15
2019-02-25T17:05:06.593Z,38.52
2019-02-25T17:06:07.380Z,37.51
2019-02-25T17:07:06.553Z,37.83
2019-02-25T17:08:08.160Z,38.23
2019-02-25T17:09:06.540Z,37.52
2019-02-25T17:10:06.540Z,39.96
2019-02-25T17:11:06.512Z,39.04
2019-02-25T17:12:07.259Z,40.34
2019-02-25T17:13:08.103Z,39.55
2019-02-25T17:14:06.475Z,38.74
2019-02-25T17:15:09.958Z,38.84
2019-02-25T17:16:17.660Z,38.25
2019-02-25T17:17:07.454Z,39.78
2019-02-25T17:18:06.431Z,39.98
2019-02-25T17:19:06.425Z,39.57
2019-02-25T17:20:10.229Z,38.15
2019-02-25T17:21:08.090Z,39.08
2019-02-25T17:22:06.389Z,38.68
2019-02-25T17:23:09.420Z,40.30
2019-02-25T17:24:07.319Z,40.00
2019-02-25T17:25:09.681Z,40.09
2019-02-25T17:26:07.812Z,38.78
2019-02-25T17:27:06.967Z,38.78
2019-02-25T17:28:08.162Z,41.33
2019-02-25T17:29:07.316Z,39.61
2019-02-25T17:30:06.328Z,40.22
2019-02-25T17:31:07.037Z,40.72
2019-02-25T17:32:06.281Z,39.91
2019-02-25T17:33:08.058Z,40.54
2019-02-25T17:34:06.266Z,40.34
2019-02-25T17:35:07.414Z,41.15
2019-02-25T17:36:07.544Z,40.23
2019-02-25T17:37:07.988Z,40.03
2019-02-25T17:38:06.223Z,40.34
2019-02-25T17:39:08.184Z,40.03
2019-02-25T17:40:06.843Z,39.95
2019-02-25T17:41:06.677Z,40.86
2019-02-25T17:42:08.100Z,41.38
2019-02-25T17:43:06.167Z,42.00
2019-02-25T17:44:06.154Z,42.69
2019-02-25T17:45:07.679Z,41.88
2019-02-25T17:46:07.043Z,43.32
2019-02-25T17:47:06.720Z,41.68
2019-02-25T17:48:08.359Z,42.61
2019-02-25T17:49:07.771Z,41.49
2019-02-25T17:50:07.011Z,42.51
2019-02-25T17:51:06.200Z,42.82
2019-02-25T17:52:06.070Z,42.41
2019-02-25T17:53:07.456Z,43.55
2019-02-25T17:54:07.597Z,41.92
2019-02-25T17:55:06.686Z,41.31
2019-02-25T17:56:06.052Z,41.80
2019-02-25T17:57:07.528Z,41.52
2019-02-25T17:58:06.003Z,41.41
2019-02-25T17:59:07.560Z,42.43
2019-02-25T18:00:06.841Z,42.65
2019-02-25T18:01:05.990Z,44.18
2019-02-25T18:02:06.661Z,43.37
2019-02-25T18:03:05.946Z,42.76
2019-02-25T18:04:06.649Z,43.47
2019-02-25T18:05:05.930Z,42.45
2019-02-25T18:06:07.504Z,43.26
2019-02-25T18:07:05.919Z,43.18
2019-02-25T18:08:08.102Z,44.00
2019-02-25T18:09:05.895Z,44.51
2019-02-25T18:10:07.675Z,43.69
2019-02-25T18:11:05.881Z,43.38
2019-02-25T18:12:06.473Z,42.37
2019-02-25T18:13:08.054Z,43.10
2019-02-25T18:14:05.839Z,42.69
2019-02-25T18:15:07.339Z,44.63
2019-02-25T18:16:05.829Z,43.30
2019-02-25T18:17:06.145Z,43.00
2019-02-25T18:18:09.133Z,44.04
2019-02-25T18:19:06.774Z,44.12
2019-02-25T18:20:05.762Z,44.55
2019-02-25T18:21:06.355Z,44.14
2019-02-25T18:22:05.743Z,43.63
2019-02-25T18:23:05.739Z,44.24
2019-02-25T18:24:05.718Z,43.02
2019-02-25T18:25:05.729Z,45.79
2019-02-25T18:26:05.716Z,46.59
2019-02-25T18:27:06.945Z,46.61
2019-02-25T18:28:06.385Z,46.10
2019-02-25T18:29:07.462Z,44.26
2019-02-25T18:30:05.659Z,45.28
2019-02-25T18:31:09.076Z,45.28
2019-02-25T18:32:08.059Z,45.69
2019-02-25T18:33:05.635Z,43.75
2019-02-25T18:34:06.963Z,44.37
2019-02-25T18:35:05.597Z,46.61
2019-02-25T18:36:07.125Z,44.78
2019-02-25T18:37:07.141Z,46.71
2019-02-25T18:38:07.638Z,46.51
2019-02-25T18:39:05.562Z,45.79
2019-02-25T18:40:05.542Z,44.16
2019-02-25T18:41:06.947Z,43.55
2019-02-25T18:42:05.526Z,46.71
2019-02-25T18:43:06.811Z,44.79
2019-02-25T18:44:07.069Z,48.16
2019-02-25T18:45:05.496Z,47.34
2019-02-25T18:46:07.267Z,44.79
2019-02-25T18:47:05.495Z,46.45
2019-02-25T18:48:05.469Z,45.94
2019-02-25T18:49:07.268Z,48.49
2019-02-25T18:50:05.431Z,47.06
2019-02-25T18:51:05.459Z,46.78
2019-02-25T18:52:05.426Z,46.75
2019-02-25T18:53:05.396Z,47.06
2019-02-25T18:54:05.386Z,48.59
2019-02-25T18:55:06.718Z,48.18
2019-02-25T18:56:05.368Z,48.10
2019-02-25T18:57:05.984Z,48.41
2019-02-25T18:58:07.292Z,47.78
2019-02-25T18:59:08.747Z,47.16
2019-02-25T19:00:06.328Z,48.61
2019-02-25T19:01:06.879Z,48.61
2019-02-25T19:02:05.814Z,48.72
2019-02-25T19:03:05.288Z,48.51
2019-02-25T19:04:05.280Z,49.43
2019-02-25T19:05:07.117Z,48.72
2019-02-25T19:06:05.288Z,49.84
2019-02-25T19:07:05.852Z,47.90
2019-02-25T19:08:05.231Z,49.22
2019-02-25T19:09:05.235Z,47.49
2019-02-25T19:10:05.218Z,48.43
2019-02-25T19:11:05.209Z,48.21